Myra Eckstein — WDF9473 — position and weather

sailwx.info

Track history (hours):
 
Tides and Currents Weather Stations Pressure Air Temp Water Temp Dewpoint Dewpoint Depression Visibility Wind Speed Wind Dir Waves Ship Positions

Myra Eckstein

Owner: Marquette Transportation Co. LLC, Paducah, KY. More information available from US FCC via Universal Licensing System and Coast Guard Vessel Documentation Center.

Last reported at 2015-Jan-04 08:18 UTC. Time now 2015-Feb-01 04:07 UTC.
Position N 30°03' W 090°38'.
Warning: this ship's position is 27 days out of date.

Length 47 m; draft 3.5 m.

Type: Towing. MMSI: 367505510.

Date/timePositionNaut miles runAvg speedWind from/ knotsBaromVisibWave heightAir tempDewpointWater temp
2015-Jan-04 08:18N 30°03' W 090°38'0 0.0
2015-Jan-04 07:28N 30°03' W 090°38'9 0.5
2015-Jan-03 13:28N 30°03' W 090°28'0 0.0
2015-Jan-03 12:27N 30°03' W 090°28'0 0.0
2015-Jan-03 11:33N 30°03' W 090°28'0 0.0
2015-Jan-03 10:28N 30°03' W 090°28'0 0.0
2015-Jan-03 09:32N 30°03' W 090°28'0 0.0
2015-Jan-03 08:24N 30°03' W 090°28'0 0.0
2015-Jan-03 07:28N 30°03' W 090°28'0 0.0
2015-Jan-03 05:19N 30°03' W 090°28'0 0.0
2015-Jan-03 02:23N 30°03' W 090°28'12 0.3
2015-Jan-01 15:33N 29°58' W 090°15'0 0.2
2015-Jan-01 14:27N 29°58' W 090°15'0 0.0
2015-Jan-01 13:33N 29°58' W 090°15'0 0.0
2015-Jan-01 12:28N 29°58' W 090°15'17 0.6
2014-Dec-31 07:32N 30°03' W 090°34'  
Track history (hours):
 
Tides and Currents Weather Stations Pressure Air Temp Water Temp Dewpoint Dewpoint Depression Visibility Wind Speed Wind Dir Waves Ship Positions

Myra Eckstein

Owner: Marquette Transportation Co. LLC, Paducah, KY. More information available from US FCC via Universal Licensing System and Coast Guard Vessel Documentation Center.

Last reported at 2015-Jan-04 08:18 UTC. Time now 2015-Feb-01 04:07 UTC.
Position N 30°03' W 090°38'.
Warning: this ship's position is 27 days out of date.

Length 47 m; draft 3.5 m.

Type: Towing. MMSI: 367505510.

Date/timePositionNaut miles runAvg speedWind from/ knotsBaromVisibWave heightAir tempDewpointWater temp
2015-Jan-04 08:18N 30°03' W 090°38'0 0.0
2015-Jan-04 07:28N 30°03' W 090°38'9 0.5
2015-Jan-03 13:28N 30°03' W 090°28'0 0.0
2015-Jan-03 12:27N 30°03' W 090°28'0 0.0
2015-Jan-03 11:33N 30°03' W 090°28'0 0.0
2015-Jan-03 10:28N 30°03' W 090°28'0 0.0
2015-Jan-03 09:32N 30°03' W 090°28'0 0.0
2015-Jan-03 08:24N 30°03' W 090°28'0 0.0
2015-Jan-03 07:28N 30°03' W 090°28'0 0.0
2015-Jan-03 05:19N 30°03' W 090°28'0 0.0
2015-Jan-03 02:23N 30°03' W 090°28'12 0.3
2015-Jan-01 15:33N 29°58' W 090°15'0 0.2
2015-Jan-01 14:27N 29°58' W 090°15'0 0.0
2015-Jan-01 13:33N 29°58' W 090°15'0 0.0
2015-Jan-01 12:28N 29°58' W 090°15'17 0.6
2014-Dec-31 07:32N 30°03' W 090°34'  

Dump ship's entire track history